Time;durP1;ratioP1;P1;durP2;ratioP2;P2;SDS_P1;SDS_P2;PMS_P1;PMS_P2;Temp;Humidity;BMP_temperature;BMP_pressure;BME280_temperature;BME280_humidity;BME280_pressure;Samples;Min_cycle;Max_cycle;Signal;HPM_P1;HPM_P2
2022/10/25 00:01:37;;;;;;;23.47;20.02;;;;;;;11.93;79.47;100410.50;1810990;78;20997;-72
2022/10/25 00:04:05;;;;;;;24.52;18.48;;;;;;;11.93;79.52;100403.04;1789254;78;21123;-72
2022/10/25 00:06:31;;;;;;;20.68;18.15;;;;;;;11.94;79.51;100403.39;1802359;78;21827;-72
2022/10/25 00:08:58;;;;;;;22.15;18.12;;;;;;;11.93;79.46;100401.23;1747856;79;21011;-71
2022/10/25 00:11:27;;;;;;;24.50;17.92;;;;;;;11.93;79.45;100404.36;1760361;79;21510;-72
2022/10/25 00:13:57;;;;;;;21.73;18.00;;;;;;;11.93;79.44;100405.69;1777360;79;21250;-71
2022/10/25 00:16:33;;;;;;;24.75;18.32;;;;;;;11.92;79.37;100406.17;1790620;79;21017;-72
2022/10/25 00:18:59;;;;;;;24.92;17.60;;;;;;;11.92;79.35;100401.36;1789186;79;21785;-70
2022/10/25 00:21:26;;;;;;;21.10;16.97;;;;;;;11.91;79.28;100394.40;1787846;79;21346;-72
2022/10/25 00:23:53;;;;;;;18.60;16.60;;;;;;;11.89;79.25;100386.59;1785931;79;21015;-70
2022/10/25 00:26:20;;;;;;;21.02;17.48;;;;;;;11.89;79.21;100393.69;1730688;80;21096;-71
2022/10/25 00:28:47;;;;;;;21.95;18.07;;;;;;;11.88;79.12;100386.23;1737220;82;21090;-72
2022/10/25 00:31:15;;;;;;;22.40;16.35;;;;;;;11.86;79.08;100382.02;1770388;79;22600;-71
2022/10/25 00:33:43;;;;;;;23.22;17.90;;;;;;;11.85;79.04;100385.64;1801527;79;21487;-71
2022/10/25 00:36:13;;;;;;;19.25;16.50;;;;;;;11.81;79.00;100387.72;1748604;80;21033;-71
2022/10/25 00:38:41;;;;;;;21.42;16.73;;;;;;;11.80;79.02;100387.37;1713692;81;21261;-72
2022/10/25 00:41:08;;;;;;;21.40;17.17;;;;;;;11.79;79.09;100382.17;1702666;82;21415;-72
2022/10/25 00:43:51;;;;;;;21.37;16.60;;;;;;;11.80;79.17;100382.08;1780394;79;21927;-71
2022/10/25 00:46:28;;;;;;;21.05;17.20;;;;;;;11.80;79.18;100375.45;1786035;78;21000;-71
2022/10/25 00:49:07;;;;;;;20.90;16.48;;;;;;;11.81;79.20;100371.84;1789508;78;21063;-72
2022/10/25 00:51:45;;;;;;;18.85;16.40;;;;;;;11.81;79.19;100358.61;1789650;78;21008;-72
2022/10/25 00:54:16;;;;;;;19.32;16.25;;;;;;;11.82;79.14;100356.80;1783441;79;21116;-71
2022/10/25 00:56:43;;;;;;;20.72;16.25;;;;;;;11.80;78.97;100362.23;1760276;79;21842;-73
2022/10/25 00:59:12;;;;;;;18.65;16.25;;;;;;;11.78;78.92;100356.20;1787325;78;21044;-71
2022/10/25 01:01:39;;;;;;;19.32;16.52;;;;;;;11.77;78.94;100355.81;1794080;78;21348;-71
2022/10/25 01:04:08;;;;;;;17.67;15.45;;;;;;;11.76;78.90;100359.44;1782949;79;20986;-72
2022/10/25 01:06:45;;;;;;;19.27;16.12;;;;;;;11.74;78.80;100361.38;1784018;78;21039;-72
2022/10/25 01:09:17;;;;;;;21.30;15.85;;;;;;;11.68;78.81;100353.49;1765197;78;21910;-71
2022/10/25 01:11:44;;;;;;;17.67;15.48;;;;;;;11.67;78.87;100353.59;1800009;78;21423;-71
2022/10/25 01:14:12;;;;;;;19.35;15.40;;;;;;;11.65;78.88;100343.63;1804711;78;21383;-71
2022/10/25 01:16:54;;;;;;;18.25;15.48;;;;;;;11.67;78.97;100346.98;1763182;78;21029;-72
2022/10/25 01:19:50;;;;;;;19.90;15.40;;;;;;;11.68;78.99;100342.07;1737513;81;21063;-72
2022/10/25 01:22:31;;;;;;;18.55;14.98;;;;;;;11.68;79.01;100331.48;1798758;78;21770;-71
2022/10/25 01:25:29;;;;;;;17.42;15.10;;;;;;;11.68;78.90;100333.65;1802427;78;21399;-71
2022/10/25 01:28:33;;;;;;;17.15;15.25;;;;;;;11.66;78.87;100334.23;1797370;78;21455;-71
2022/10/25 01:31:23;;;;;;;17.40;14.38;;;;;;;11.64;78.87;100330.05;1796787;78;29338;-72
2022/10/25 01:34:12;;;;;;;17.82;14.93;;;;;;;11.62;78.91;100322.25;1795996;77;20954;-72
2022/10/25 01:37:11;;;;;;;16.32;14.45;;;;;;;11.63;78.92;100332.34;1772360;79;21910;-72
2022/10/25 01:39:42;;;;;;;20.37;14.87;;;;;;;11.58;78.96;100334.08;1760713;78;21107;-72
2022/10/25 01:42:23;;;;;;;17.95;14.60;;;;;;;11.57;79.04;100336.34;1722474;81;21059;-72
2022/10/25 01:45:13;;;;;;;19.20;14.70;;;;;;;11.58;79.09;100338.49;1732385;81;20950;-72
2022/10/25 01:47:47;;;;;;;16.73;14.50;;;;;;;11.55;79.12;100338.27;1718777;82;21017;-72
2022/10/25 01:50:17;;;;;;;;;;;;;;;11.53;79.16;100336.73;1734335;80;21821;-72
2022/10/25 01:52:43;;;;;;;16.00;13.93;;;;;;;11.52;79.12;100324.48;1757303;79;20168;-72
2022/10/25 01:55:11;;;;;;;17.48;13.80;;;;;;;11.49;79.16;100327.39;1724535;82;21025;-72
2022/10/25 01:58:14;;;;;;;19.52;14.80;;;;;;;11.47;79.19;100325.69;1729989;82;20973;-72
2022/10/25 02:00:59;;;;;;;17.92;13.80;;;;;;;11.46;79.29;100324.02;1718234;81;21607;-72
2022/10/25 02:03:41;;;;;;;17.65;13.98;;;;;;;11.46;79.41;100325.34;1727063;80;21892;-73
2022/10/25 02:06:25;;;;;;;16.20;14.43;;;;;;;11.48;79.47;100331.81;1750339;80;21076;-71
2022/10/25 02:09:07;;;;;;;16.97;13.62;;;;;;;11.50;79.47;100329.91;1751598;80;21002;-72
2022/10/25 02:11:34;;;;;;;16.57;13.43;;;;;;;11.51;79.46;100330.74;1732617;81;21373;-72
2022/10/25 02:14:27;;;;;;;15.88;13.62;;;;;;;11.50;79.48;100338.33;1685866;81;21082;-71
2022/10/25 02:17:16;;;;;;;18.07;13.65;;;;;;;11.49;79.43;100334.00;1717051;81;21962;-71
2022/10/25 02:19:56;;;;;;;16.42;12.82;;;;;;;11.47;79.47;100337.59;1699200;83;21094;-72
2022/10/25 02:22:26;;;;;;;17.52;12.85;;;;;;;11.45;79.40;100341.34;1725725;81;21194;-72
2022/10/25 02:24:53;;;;;;;17.15;12.10;;;;;;;11.43;79.42;100345.44;1732889;82;21014;-71
2022/10/25 02:27:19;;;;;;;16.93;12.47;;;;;;;11.40;79.48;100345.70;1705995;82;20996;-71
2022/10/25 02:29:46;;;;;;;17.52;12.60;;;;;;;11.39;79.51;100345.84;1685551;82;21882;-71
2022/10/25 02:32:13;;;;;;;15.53;12.78;;;;;;;11.36;79.51;100342.10;1714934;82;21033;-71
2022/10/25 02:34:41;;;;;;;15.83;13.00;;;;;;;11.34;79.51;100334.78;1714527;82;20977;-71
2022/10/25 02:37:08;;;;;;;14.33;12.70;;;;;;;11.33;79.50;100336.59;1753938;80;21005;-72
2022/10/25 02:39:36;;;;;;;13.88;12.28;;;;;;;11.31;79.42;100339.02;1666709;82;48630;-71
2022/10/25 02:42:04;;;;;;;13.60;12.20;;;;;;;11.26;79.41;100339.38;1756034;79;22686;-71
2022/10/25 02:44:31;;;;;;;18.77;11.85;;;;;;;11.25;79.32;100339.03;1782464;78;20932;-72
2022/10/25 02:46:58;;;;;;;17.23;13.08;;;;;;;11.21;79.30;100345.55;1810494;77;21075;-72
2022/10/25 02:49:25;;;;;;;18.37;13.08;;;;;;;11.18;79.28;100342.66;1781246;79;21134;-71
2022/10/25 02:51:52;;;;;;;13.43;11.15;;;;;;;11.15;79.22;100340.75;1794244;78;21018;-71
2022/10/25 02:54:19;;;;;;;14.83;12.20;;;;;;;11.10;79.18;100342.47;1777081;79;21866;-71
2022/10/25 02:56:47;;;;;;;15.20;11.63;;;;;;;11.07;79.21;100339.22;1769938;79;21005;-71
2022/10/25 02:59:15;;;;;;;14.15;11.60;;;;;;;11.02;79.20;100340.09;1782260;79;21417;-71
2022/10/25 03:01:43;;;;;;;13.20;11.25;;;;;;;10.97;79.25;100343.58;1735088;80;21023;-72
2022/10/25 03:04:10;;;;;;;12.80;11.40;;;;;;;10.95;79.28;100336.27;1781834;79;20948;-71
2022/10/25 03:06:36;;;;;;;13.50;11.80;;;;;;;10.91;79.22;100338.81;1794469;77;22002;-71
2022/10/25 03:09:03;;;;;;;18.40;11.75;;;;;;;10.88;79.24;100337.23;1794745;79;20997;-71
2022/10/25 03:11:30;;;;;;;14.40;10.80;;;;;;;10.87;79.25;100334.23;1789407;78;21049;-72
2022/10/25 03:13:58;;;;;;;13.13;10.75;;;;;;;10.85;79.20;100330.41;1776939;79;21037;-70
2022/10/25 03:16:25;;;;;;;14.05;11.43;;;;;;;10.82;79.17;100331.15;1769119;79;21490;-70
2022/10/25 03:18:56;;;;;;;14.30;11.28;;;;;;;10.77;79.22;100325.38;1784299;78;21853;-71
2022/10/25 03:21:23;;;;;;;12.63;11.20;;;;;;;10.76;79.27;100330.31;1779543;79;20984;-71
2022/10/25 03:23:50;;;;;;;13.93;11.03;;;;;;;10.76;79.29;100329.83;1778701;79;20953;-71
2022/10/25 03:26:17;;;;;;;12.85;10.75;;;;;;;10.76;79.32;100327.19;1767982;78;20967;-71
2022/10/25 03:28:44;;;;;;;15.48;11.40;;;;;;;10.76;79.35;100331.63;1797892;78;20984;-71
2022/10/25 03:31:13;;;;;;;12.82;10.20;;;;;;;10.76;79.32;100333.80;1772821;79;22413;-71
2022/10/25 03:33:40;;;;;;;13.85;11.05;;;;;;;10.76;79.29;100332.95;1739660;81;21072;-72
2022/10/25 03:36:07;;;;;;;13.08;10.88;;;;;;;10.75;79.28;100333.92;1761518;80;21092;-71
2022/10/25 03:38:34;;;;;;;13.93;11.00;;;;;;;10.72;79.21;100328.41;1740543;81;21028;-71
2022/10/25 03:41:00;;;;;;;14.30;10.90;;;;;;;10.69;79.17;100329.95;1723323;81;21490;-71
2022/10/25 03:43:27;;;;;;;14.18;11.08;;;;;;;10.65;79.12;100328.54;1685455;81;21985;-73
2022/10/25 03:45:54;;;;;;;12.33;10.50;;;;;;;10.62;79.06;100321.36;1807190;77;21424;-71
2022/10/25 03:48:21;;;;;;;16.95;11.40;;;;;;;10.57;79.01;100323.03;1777890;78;20989;-71
2022/10/25 03:50:48;;;;;;;12.73;10.45;;;;;;;10.53;78.96;100320.28;1770752;78;21451;-72
2022/10/25 03:53:14;;;;;;;13.25;10.85;;;;;;;10.49;78.90;100317.52;1774699;78;21520;-71
2022/10/25 03:55:42;;;;;;;14.15;10.95;;;;;;;10.43;78.89;100318.86;1776319;79;20926;-71
2022/10/25 03:58:09;;;;;;;13.70;11.40;;;;;;;10.38;78.91;100321.50;1765239;79;20958;-71
2022/10/25 04:00:36;;;;;;;13.50;11.20;;;;;;;10.31;78.98;100321.97;1785545;79;21834;-71
2022/10/25 04:03:05;;;;;;;14.75;11.28;;;;;;;10.28;79.00;100320.91;1786586;79;21065;-71
2022/10/25 04:05:32;;;;;;;13.62;11.33;;;;;;;10.24;79.01;100327.88;1753742;80;21077;-71
2022/10/25 04:07:59;;;;;;;14.55;10.32;;;;;;;10.20;79.00;100326.39;1711176;82;21862;-71
2022/10/25 04:10:26;;;;;;;13.55;11.45;;;;;;;10.14;79.04;100321.61;1738960;80;21010;-71
2022/10/25 04:12:54;;;;;;;15.32;11.03;;;;;;;10.10;79.11;100317.03;1790792;79;21000;-71
2022/10/25 04:15:21;;;;;;;14.58;11.10;;;;;;;10.07;79.16;100322.56;1741300;80;20990;-71
2022/10/25 04:17:50;;;;;;;14.38;11.20;;;;;;;10.07;79.18;100323.88;1749792;80;20888;-71
2022/10/25 04:20:17;;;;;;;15.40;11.43;;;;;;;10.03;79.15;100321.11;1734635;81;21969;-71
2022/10/25 04:22:45;;;;;;;13.58;11.10;;;;;;;10.00;79.19;100321.35;1782215;78;21209;-71
2022/10/25 04:25:13;;;;;;;12.25;10.95;;;;;;;9.97;79.21;100317.64;1782258;79;21052;-71
2022/10/25 04:27:39;;;;;;;14.03;10.98;;;;;;;9.95;79.29;100315.61;1791880;79;22137;-72
2022/10/25 04:30:08;;;;;;;13.72;11.45;;;;;;;9.96;79.30;100317.28;1768322;81;20998;-71
2022/10/25 04:32:35;;;;;;;14.60;11.00;;;;;;;9.96;79.25;100318.13;1774106;79;21998;-71
2022/10/25 04:35:04;;;;;;;18.60;10.78;;;;;;;9.95;79.18;100319.56;1771770;78;21013;-71
2022/10/25 04:37:30;;;;;;;14.30;10.68;;;;;;;9.90;79.14;100317.75;1771134;78;20949;-71
2022/10/25 04:39:57;;;;;;;14.78;11.10;;;;;;;9.87;79.12;100313.56;1774833;78;20934;-71
2022/10/25 04:42:24;;;;;;;13.55;11.38;;;;;;;9.86;79.13;100313.69;1759930;78;21431;-71
2022/10/25 04:44:51;;;;;;;16.25;11.48;;;;;;;9.85;79.13;100312.84;1777202;78;22567;-71
2022/10/25 04:47:17;;;;;;;12.58;10.50;;;;;;;9.84;79.14;100319.05;1781533;79;21311;-71
2022/10/25 04:49:44;;;;;;;13.28;10.90;;;;;;;9.83;79.10;100316.53;1751376;79;21585;-71
2022/10/25 04:52:12;;;;;;;13.18;10.60;;;;;;;9.80;79.08;100311.02;1786698;78;20962;-71
2022/10/25 04:54:38;;;;;;;12.80;11.18;;;;;;;9.78;79.09;100312.11;1780699;78;21186;-71
2022/10/25 04:57:06;;;;;;;13.48;11.35;;;;;;;9.75;79.13;100311.39;1780437;79;21929;-71
2022/10/25 04:59:33;;;;;;;14.78;11.88;;;;;;;9.73;79.18;100310.64;1783491;79;21110;-71
2022/10/25 05:02:00;;;;;;;14.50;12.13;;;;;;;9.73;79.26;100313.28;1745152;79;21017;-72
2022/10/25 05:04:26;;;;;;;20.57;13.88;;;;;;;9.73;79.29;100319.88;1782171;79;21023;-70
2022/10/25 05:06:53;;;;;;;37.73;27.73;;;;;;;9.73;79.33;100317.72;1784535;79;20985;-72
2022/10/25 05:09:20;;;;;;;29.63;22.37;;;;;;;9.73;79.39;100328.27;1804874;78;22741;-72
2022/10/25 05:11:48;;;;;;;19.80;16.52;;;;;;;9.72;79.48;100329.23;1729491;81;20963;-72
2022/10/25 05:14:15;;;;;;;19.85;14.95;;;;;;;9.69;79.63;100327.68;1716626;81;21135;-72
2022/10/25 05:16:42;;;;;;;19.07;15.28;;;;;;;9.68;79.81;100324.69;1792351;77;21035;-72
2022/10/25 05:19:10;;;;;;;19.05;14.85;;;;;;;9.69;79.96;100325.04;1765391;78;21027;-71
2022/10/25 05:21:37;;;;;;;18.00;13.32;;;;;;;9.71;80.09;100326.23;1756534;80;21922;-71
2022/10/25 05:24:05;;;;;;;15.80;13.18;;;;;;;9.73;80.20;100329.11;1784390;78;20989;-71
2022/10/25 05:26:32;;;;;;;13.45;12.05;;;;;;;9.75;80.33;100324.58;1770685;79;21009;-72
2022/10/25 05:29:00;;;;;;;12.53;10.15;;;;;;;9.79;80.42;100329.13;1786506;79;20965;-72
2022/10/25 05:31:29;;;;;;;15.93;12.13;;;;;;;9.83;80.55;100331.05;1771744;79;21107;-71
2022/10/25 05:33:59;;;;;;;14.38;12.18;;;;;;;9.85;80.64;100329.98;1797826;79;21951;-71
2022/10/25 05:36:28;;;;;;;15.32;12.05;;;;;;;9.89;80.78;100334.54;1799379;78;21040;-72
2022/10/25 05:38:56;;;;;;;14.75;11.88;;;;;;;9.93;80.86;100332.02;1796402;78;21041;-72
2022/10/25 05:41:24;;;;;;;12.73;11.18;;;;;;;9.97;80.92;100332.99;1745924;81;21100;-72
2022/10/25 05:43:51;;;;;;;16.40;11.18;;;;;;;9.99;80.97;100325.79;1753205;80;20988;-71
2022/10/25 05:46:20;;;;;;;14.70;11.35;;;;;;;10.04;81.07;100326.77;1676199;82;22539;-71
2022/10/25 05:48:47;;;;;;;13.98;10.60;;;;;;;10.11;81.13;100335.02;1730598;82;20992;-71
2022/10/25 05:51:26;;;;;;;14.65;11.68;;;;;;;10.16;81.18;100333.72;1744218;80;21383;-72
2022/10/25 05:53:55;;;;;;;13.93;11.60;;;;;;;10.21;81.22;100335.50;1717644;82;21073;-70
2022/10/25 05:56:23;;;;;;;13.00;11.08;;;;;;;10.28;81.28;100330.62;1776977;79;21110;-72
2022/10/25 05:58:51;;;;;;;15.35;11.80;;;;;;;10.34;81.36;100332.80;1787163;79;21956;-71
2022/10/25 06:01:20;;;;;;;15.43;11.12;;;;;;;10.42;81.43;100336.98;1768281;78;20987;-72
2022/10/25 06:03:48;;;;;;;15.10;12.07;;;;;;;10.48;81.48;100328.56;1783621;78;21056;-72
2022/10/25 06:06:16;;;;;;;14.68;11.48;;;;;;;10.54;81.46;100332.05;1749519;80;21106;-71
2022/10/25 06:08:44;;;;;;;16.82;11.60;;;;;;;10.58;81.44;100329.50;1770406;78;21052;-73
2022/10/25 06:11:15;;;;;;;13.55;11.03;;;;;;;10.65;81.40;100331.66;1803243;78;22531;-72
2022/10/25 06:13:42;;;;;;;13.50;10.58;;;;;;;10.68;81.35;100333.56;1793108;78;21339;-72
2022/10/25 06:16:12;;;;;;;12.45;10.35;;;;;;;10.75;81.33;100336.08;1775083;80;20949;-72
2022/10/25 06:18:38;;;;;;;13.53;11.12;;;;;;;10.81;81.31;100340.88;1763216;80;21621;-72
2022/10/25 06:21:08;;;;;;;11.83;10.58;;;;;;;10.87;81.26;100344.33;1766094;79;21026;-72
2022/10/25 06:23:36;;;;;;;13.75;10.43;;;;;;;10.96;81.22;100337.94;1813383;78;22414;-72
2022/10/25 06:26:09;;;;;;;15.48;11.12;;;;;;;11.05;81.16;100338.52;1719076;78;21175;-72
2022/10/25 06:28:37;;;;;;;13.25;10.75;;;;;;;11.11;80.99;100333.58;1806849;78;21013;-72
2022/10/25 06:31:13;;;;;;;11.03;9.60;;;;;;;11.19;80.85;100334.23;1791761;78;21013;-71
2022/10/25 06:33:40;;;;;;;15.43;10.93;;;;;;;11.29;80.76;100342.25;1803377;78;21028;-72
2022/10/25 06:36:13;;;;;;;12.70;10.38;;;;;;;11.35;80.51;100345.72;1770136;79;21991;-72
2022/10/25 06:38:40;;;;;;;14.28;10.38;;;;;;;11.39;80.23;100340.06;1770011;79;25140;-73
2022/10/25 06:41:15;;;;;;;12.80;10.48;;;;;;;11.44;80.02;100335.70;1801269;77;21418;-72
2022/10/25 06:43:42;;;;;;;14.80;10.75;;;;;;;11.50;79.88;100329.06;1755268;79;21009;-72
2022/10/25 06:46:15;;;;;;;13.75;10.50;;;;;;;11.57;79.77;100324.91;1740216;79;20948;-71
2022/10/25 06:48:43;;;;;;;12.73;10.58;;;;;;;11.65;79.64;100321.14;1788907;79;22599;-72
2022/10/25 06:51:10;;;;;;;12.10;10.50;;;;;;;11.70;79.29;100316.31;1787850;79;20976;-72
2022/10/25 06:53:38;;;;;;;13.43;9.73;;;;;;;11.77;79.15;100309.51;1707492;80;20953;-72
2022/10/25 06:56:07;;;;;;;14.13;10.60;;;;;;;11.85;78.97;100307.08;1764388;79;21192;-71
2022/10/25 06:58:36;;;;;;;11.78;9.83;;;;;;;11.94;78.78;100305.45;1767719;79;21048;-71
2022/10/25 07:01:12;;;;;;;14.50;10.03;;;;;;;12.02;78.57;100301.18;1770923;78;21936;-71
2022/10/25 07:03:39;;;;;;;12.98;10.05;;;;;;;12.12;78.45;100309.16;1784150;79;21000;-71
2022/10/25 07:06:14;;;;;;;12.33;9.45;;;;;;;12.21;78.11;100311.50;1773335;79;20987;-72
2022/10/25 07:08:44;;;;;;;12.65;10.15;;;;;;;12.28;77.82;100312.65;1783893;79;21005;-72
2022/10/25 07:11:18;;;;;;;12.37;9.58;;;;;;;12.32;77.41;100312.72;1781646;78;21497;-72
2022/10/25 07:13:46;;;;;;;12.63;10.08;;;;;;;12.37;77.22;100311.84;1752831;79;21940;-72
2022/10/25 07:16:15;;;;;;;12.53;9.75;;;;;;;12.44;77.09;100309.47;1785106;79;21050;-72
2022/10/25 07:18:43;;;;;;;12.55;10.28;;;;;;;12.53;77.06;100303.36;1785929;79;21050;-72
2022/10/25 07:21:19;;;;;;;13.28;9.68;;;;;;;12.65;76.92;100312.89;1752134;79;21656;-73
2022/10/25 07:23:46;;;;;;;13.55;9.63;;;;;;;12.73;76.57;100314.34;1780385;78;21099;-74
2022/10/25 07:26:25;;;;;;;12.95;9.90;;;;;;;12.77;76.17;100309.14;1775578;79;21784;-73
2022/10/25 07:28:54;;;;;;;11.30;9.45;;;;;;;12.81;75.79;100308.37;1783462;79;20942;-74
2022/10/25 07:31:25;;;;;;;11.43;9.78;;;;;;;12.89;75.77;100309.36;1761653;79;21012;-76
2022/10/25 07:33:53;;;;;;;11.83;9.78;;;;;;;13.02;75.83;100305.09;1773582;79;21168;-73
2022/10/25 07:36:20;;;;;;;15.53;9.20;;;;;;;13.16;75.72;100302.53;1756473;79;21095;-73
2022/10/25 07:38:46;;;;;;;13.28;9.68;;;;;;;13.28;75.44;100308.06;1772749;79;21829;-71
2022/10/25 07:41:15;;;;;;;13.13;9.65;;;;;;;13.37;74.91;100302.41;1726173;80;21479;-72
2022/10/25 07:44:00;;;;;;;14.45;9.93;;;;;;;13.43;74.65;100305.83;1760684;79;21079;-71
2022/10/25 07:46:32;;;;;;;11.95;9.73;;;;;;;13.50;74.25;100299.45;1784143;79;20970;-73
2022/10/25 07:49:05;;;;;;;10.45;9.38;;;;;;;13.58;73.83;100288.47;1775466;79;21080;-71
2022/10/25 07:51:36;;;;;;;12.78;9.20;;;;;;;13.61;73.21;100285.55;1800842;79;21857;-72
2022/10/25 07:54:04;;;;;;;11.12;9.50;;;;;;;13.62;73.00;100287.22;1807666;78;21065;-72
2022/10/25 07:56:33;;;;;;;11.53;9.40;;;;;;;13.66;72.72;100282.45;1766191;79;21053;-72
2022/10/25 07:59:04;;;;;;;10.25;9.18;;;;;;;13.67;72.42;100281.47;1790175;79;21376;-72
2022/10/25 08:01:33;;;;;;;11.55;9.50;;;;;;;13.71;72.64;100281.05;1777627;79;21034;-72
2022/10/25 08:04:02;;;;;;;12.18;9.90;;;;;;;13.79;72.47;100277.66;1778251;78;21816;-72
2022/10/25 08:06:34;;;;;;;12.13;9.23;;;;;;;13.86;72.46;100277.92;1783327;79;21020;-72
2022/10/25 08:09:04;;;;;;;13.58;9.58;;;;;;;13.90;72.11;100272.69;1789556;79;20967;-71
2022/10/25 08:11:35;;;;;;;13.10;9.08;;;;;;;13.92;71.94;100281.33;1787234;80;21492;-71
2022/10/25 08:14:02;;;;;;;15.08;9.65;;;;;;;13.95;72.03;100279.70;1776732;79;20928;-72
2022/10/25 08:16:30;;;;;;;10.60;9.13;;;;;;;14.01;72.12;100276.48;1794926;78;21002;-76
2022/10/25 08:19:02;;;;;;;10.23;9.13;;;;;;;14.09;71.94;100276.59;1778988;79;20889;-74
2022/10/25 08:21:30;;;;;;;11.10;8.98;;;;;;;14.14;71.85;100275.64;1774362;78;20982;-72
2022/10/25 08:23:57;;;;;;;12.37;9.80;;;;;;;14.18;71.63;100275.67;1732389;81;21360;-75
2022/10/25 08:26:25;;;;;;;11.28;9.40;;;;;;;14.16;71.24;100268.35;1724564;82;21581;-71
2022/10/25 08:28:56;;;;;;;12.18;9.95;;;;;;;14.12;71.18;100263.00;1715591;83;21956;-71
2022/10/25 08:31:23;;;;;;;15.43;9.08;;;;;;;14.09;71.22;100263.31;1714575;83;21099;-70
2022/10/25 08:33:49;;;;;;;10.75;9.53;;;;;;;14.09;71.27;100267.29;1717864;82;21095;-70
2022/10/25 08:36:16;;;;;;;13.25;9.35;;;;;;;14.14;71.60;100264.18;1713010;82;21084;-71
2022/10/25 08:38:42;;;;;;;12.03;8.78;;;;;;;14.22;71.79;100271.76;1793452;79;21094;-71
2022/10/25 08:41:24;;;;;;;12.03;8.73;;;;;;;14.31;71.61;100262.91;1753392;81;21789;-70
2022/10/25 08:44:27;;;;;;;11.43;8.38;;;;;;;14.39;71.48;100268.81;1665054;82;21084;-72
2022/10/25 08:47:25;;;;;;;10.85;8.30;;;;;;;14.51;71.46;100268.13;1728314;81;21001;-70
2022/10/25 08:50:22;;;;;;;11.57;8.80;;;;;;;14.66;71.50;100262.62;1740235;81;20958;-70
2022/10/25 08:52:54;;;;;;;10.23;8.10;;;;;;;14.86;71.44;100261.52;1735272;81;21067;-68
2022/10/25 08:55:42;;;;;;;10.70;8.43;;;;;;;15.09;71.14;100255.73;1763145;78;21966;-67
2022/10/25 08:58:32;;;;;;;11.55;9.13;;;;;;;15.26;70.79;100254.04;1775267;78;21048;-70
2022/10/25 09:01:01;;;;;;;10.85;9.28;;;;;;;15.42;69.87;100260.30;1775128;79;21084;-69
2022/10/25 09:03:28;;;;;;;15.75;9.68;;;;;;;15.43;69.15;100252.64;1776995;78;21004;-70
2022/10/25 09:06:22;;;;;;;12.68;8.85;;;;;;;15.43;68.92;100253.97;1746729;79;22159;-70
2022/10/25 09:09:08;;;;;;;10.78;9.25;;;;;;;15.52;69.30;100252.70;1760415;79;22797;-68
2022/10/25 09:12:03;;;;;;;11.65;9.18;;;;;;;15.71;69.19;100252.02;1781507;78;21555;-69
2022/10/25 09:15:04;;;;;;;12.15;8.90;;;;;;;15.84;68.78;100248.95;1721611;80;21029;-74
2022/10/25 09:17:48;;;;;;;12.00;9.20;;;;;;;15.95;68.53;100239.84;1782926;79;21505;-73
2022/10/25 09:20:32;;;;;;;9.88;8.40;;;;;;;16.05;68.39;100224.56;1776152;79;21525;-75
2022/10/25 09:23:17;;;;;;;14.70;9.08;;;;;;;16.12;67.81;100222.94;1798425;78;22008;-71
2022/10/25 09:26:13;;;;;;;10.63;8.63;;;;;;;16.12;67.50;100215.44;1755649;79;21512;-73
2022/10/25 09:28:57;;;;;;;9.38;8.45;;;;;;;16.13;67.24;100213.11;1746452;80;21011;-78
2022/10/25 09:31:23;;;;;;;9.90;8.30;;;;;;;16.08;66.82;100215.41;1741540;80;21035;-72
2022/10/25 09:33:56;;;;;;;9.95;7.95;;;;;;;16.03;67.01;100215.41;1784074;79;20991;-72
2022/10/25 09:36:28;;;;;;;9.18;8.00;;;;;;;15.99;67.02;100212.70;1762242;78;21824;-74
2022/10/25 09:39:02;;;;;;;9.10;7.95;;;;;;;16.01;67.19;100204.55;1782540;78;21031;-75
2022/10/25 09:41:38;;;;;;;11.93;8.00;;;;;;;16.10;67.44;100205.42;1771799;79;21055;-72
2022/10/25 09:44:35;;;;;;;10.70;7.87;;;;;;;16.19;67.20;100202.62;1775914;79;21595;-72
2022/10/25 09:47:55;;;;;;;8.85;7.90;;;;;;;16.24;66.76;100201.65;1768877;79;21043;-73
2022/10/25 09:50:31;;;;;;;10.65;7.87;;;;;;;16.32;66.71;100210.17;1779223;79;21905;-73
2022/10/25 09:53:13;;;;;;;9.30;7.55;;;;;;;16.40;66.40;100214.16;1775071;79;21015;-74
2022/10/25 09:55:57;;;;;;;9.88;8.30;;;;;;;16.42;66.19;100212.69;1784321;78;21026;-76
2022/10/25 09:58:40;;;;;;;7.87;7.08;;;;;;;16.40;65.85;100210.66;1754305;81;21142;-75
2022/10/25 10:01:21;;;;;;;9.98;7.83;;;;;;;16.31;65.66;100212.50;1771117;79;21035;-76
2022/10/25 10:03:47;;;;;;;9.13;7.25;;;;;;;16.16;65.66;100222.11;1735739;80;22541;-71
2022/10/25 10:06:23;;;;;;;8.75;7.28;;;;;;;16.03;65.83;100219.41;1784525;77;21001;-71
2022/10/25 10:09:04;;;;;;;9.05;8.15;;;;;;;15.97;66.09;100217.37;1767887;78;21036;-73
2022/10/25 10:11:33;;;;;;;9.70;8.48;;;;;;;15.90;66.28;100227.48;1788267;79;21015;-73
2022/10/25 10:14:13;;;;;;;8.75;7.87;;;;;;;15.78;66.63;100223.44;1756282;78;21015;-73
2022/10/25 10:16:46;;;;;;;9.28;8.35;;;;;;;15.66;66.87;100221.06;1797911;78;22434;-72
2022/10/25 10:19:18;;;;;;;;;;;;;;;15.50;67.25;100220.92;1795551;78;21500;-73
2022/10/25 10:22:02;;;;;;;9.43;8.53;;;;;;;15.37;67.66;100223.17;1790465;77;20178;-73
2022/10/25 10:24:36;;;;;;;9.80;8.80;;;;;;;15.20;68.02;100224.88;1749735;80;21479;-74
2022/10/25 10:27:14;;;;;;;9.45;8.50;;;;;;;15.02;68.59;100231.55;1775879;78;21543;-75
2022/10/25 10:30:07;;;;;;;10.60;9.50;;;;;;;14.89;69.14;100225.80;1800070;77;21955;-73
2022/10/25 10:32:37;;;;;;;9.38;8.38;;;;;;;14.76;69.62;100223.51;1790051;79;21052;-74
2022/10/25 10:35:09;;;;;;;10.20;9.20;;;;;;;14.67;70.21;100223.13;1760531;79;21036;-71
2022/10/25 10:37:37;;;;;;;10.50;9.40;;;;;;;14.56;70.37;100216.18;1781666;79;21190;-72
2022/10/25 10:40:22;;;;;;;10.45;9.45;;;;;;;14.46;70.77;100211.43;1775356;79;20993;-71
2022/10/25 10:42:48;;;;;;;9.75;8.75;;;;;;;14.40;71.18;100214.67;1772709;79;21411;-71
2022/10/25 10:45:17;;;;;;;11.45;10.25;;;;;;;14.36;71.64;100211.95;1776361;79;21190;-72
2022/10/25 10:47:56;;;;;;;11.78;10.58;;;;;;;14.32;72.00;100214.58;1768506;79;21051;-75
2022/10/25 10:50:30;;;;;;;11.53;10.30;;;;;;;14.31;72.39;100213.75;1774082;78;21176;-73
2022/10/25 10:53:05;;;;;;;10.60;9.48;;;;;;;14.35;72.57;100212.11;1763363;78;21385;-72
2022/10/25 10:55:40;;;;;;;11.10;10.00;;;;;;;14.36;72.77;100211.95;1795372;79;21856;-75
2022/10/25 10:58:25;;;;;;;11.08;9.98;;;;;;;14.40;72.77;100197.90;1809811;78;21031;-72
2022/10/25 11:01:07;;;;;;;11.08;9.98;;;;;;;14.43;72.87;100196.26;1770017;79;21106;-74
2022/10/25 11:03:44;;;;;;;11.33;10.13;;;;;;;14.45;72.78;100200.95;1764486;79;21004;-72
2022/10/25 11:06:28;;;;;;;13.20;10.10;;;;;;;14.40;72.71;100206.70;1773141;79;21027;-72
2022/10/25 11:09:15;;;;;;;11.38;10.18;;;;;;;14.32;72.89;100215.42;1778176;78;21581;-74
2022/10/25 11:11:43;;;;;;;11.53;10.32;;;;;;;14.27;73.11;100208.38;1772808;79;20995;-73
2022/10/25 11:14:14;;;;;;;11.85;10.63;;;;;;;14.27;73.28;100208.38;1795129;78;21425;-74
2022/10/25 11:17:10;;;;;;;12.80;10.75;;;;;;;14.20;73.23;100211.80;1779333;79;21526;-76
2022/10/25 11:20:07;;;;;;;10.98;9.98;;;;;;;14.13;73.33;100206.23;1723839;81;20950;-73
2022/10/25 11:22:49;;;;;;;12.00;10.70;;;;;;;14.07;73.52;100214.79;1743595;81;21849;-72
2022/10/25 11:25:30;;;;;;;12.40;10.40;;;;;;;14.00;73.70;100206.59;1802213;78;20978;-73
2022/10/25 11:28:26;;;;;;;11.35;10.15;;;;;;;13.96;73.86;100207.86;1787141;78;21158;-71
2022/10/25 11:31:02;;;;;;;11.15;10.05;;;;;;;13.94;73.97;100202.36;1771258;80;21008;-72
2022/10/25 11:34:08;;;;;;;12.05;10.72;;;;;;;13.95;74.19;100199.55;1806424;78;20981;-73
2022/10/25 11:36:53;;;;;;;13.15;11.78;;;;;;;13.97;74.33;100194.92;1823640;78;21984;-72
2022/10/25 11:39:46;;;;;;;14.13;11.38;;;;;;;13.99;74.46;100190.78;1740155;81;21526;-73
2022/10/25 11:42:30;;;;;;;14.05;11.55;;;;;;;14.01;74.63;100176.40;1720189;82;21084;-73